sensor_id;sensor_type;location;lat;lon;timestamp;pressure;altitude;pressure_sealevel;temperature;humidity
5500;BME280;2772;42.700;23.304;2022-08-21T08:57:57;94545.97;;;24.90;100.00
5500;BME280;2772;42.700;23.304;2022-08-21T09:00:24;94542.63;;;24.79;100.00
5500;BME280;2772;42.700;23.304;2022-08-21T09:02:54;94535.94;;;24.84;100.00
5500;BME280;2772;42.700;23.304;2022-08-21T09:05:26;94536.63;;;24.91;100.00
5500;BME280;2772;42.700;23.304;2022-08-21T09:08:14;94528.03;;;24.93;100.00
5500;BME280;2772;42.700;23.304;2022-08-21T09:10:50;94520.22;;;24.95;100.00
5500;BME280;2772;42.700;23.304;2022-08-21T09:13:28;94520.00;;;25.09;100.00
5500;BME280;2772;42.700;23.304;2022-08-21T09:16:05;94515.56;;;25.19;100.00
5500;BME280;2772;42.700;23.304;2022-08-21T09:18:40;94524.00;;;25.28;100.00
5500;BME280;2772;42.700;23.304;2022-08-21T09:21:18;94520.31;;;25.41;100.00
5500;BME280;2772;42.700;23.304;2022-08-21T09:23:55;94510.03;;;25.49;100.00
5500;BME280;2772;42.700;23.304;2022-08-21T09:26:27;94514.66;;;25.52;100.00
5500;BME280;2772;42.700;23.304;2022-08-21T09:28:59;94509.38;;;25.64;100.00
5500;BME280;2772;42.700;23.304;2022-08-21T09:31:29;94512.59;;;25.59;100.00
5500;BME280;2772;42.700;23.304;2022-08-21T09:33:58;94513.66;;;25.65;100.00
5500;BME280;2772;42.700;23.304;2022-08-21T09:36:31;94506.72;;;25.61;100.00
5500;BME280;2772;42.700;23.304;2022-08-21T09:39:00;94512.47;;;25.66;100.00
5500;BME280;2772;42.700;23.304;2022-08-21T09:41:29;94507.91;;;25.60;100.00
5500;BME280;2772;42.700;23.304;2022-08-21T09:43:57;94500.41;;;25.64;100.00
5500;BME280;2772;42.700;23.304;2022-08-21T09:46:26;94493.31;;;25.70;100.00
5500;BME280;2772;42.700;23.304;2022-08-21T09:48:55;94496.53;;;25.65;100.00
5500;BME280;2772;42.700;23.304;2022-08-21T09:51:26;94493.38;;;25.66;100.00
5500;BME280;2772;42.700;23.304;2022-08-21T09:53:56;94491.72;;;25.72;100.00
5500;BME280;2772;42.700;23.304;2022-08-21T09:56:29;94495.53;;;25.75;100.00
5500;BME280;2772;42.700;23.304;2022-08-21T09:59:23;94494.00;;;25.74;100.00
5500;BME280;2772;42.700;23.304;2022-08-21T10:01:52;94486.81;;;25.83;100.00
5500;BME280;2772;42.700;23.304;2022-08-21T10:04:22;94483.47;;;25.95;100.00
5500;BME280;2772;42.700;23.304;2022-08-21T10:06:49;94485.94;;;25.90;100.00
5500;BME280;2772;42.700;23.304;2022-08-21T10:09:17;94481.50;;;25.96;100.00
5500;BME280;2772;42.700;23.304;2022-08-21T10:11:50;94484.72;;;25.91;100.00
5500;BME280;2772;42.700;23.304;2022-08-21T10:14:30;94480.94;;;25.85;100.00
5500;BME280;2772;42.700;23.304;2022-08-21T10:17:05;94480.47;;;25.90;100.00
5500;BME280;2772;42.700;23.304;2022-08-21T10:19:41;94473.81;;;25.91;100.00
5500;BME280;2772;42.700;23.304;2022-08-21T10:22:19;94475.06;;;25.86;100.00
5500;BME280;2772;42.700;23.304;2022-08-21T10:24:53;94479.50;;;26.00;100.00
5500;BME280;2772;42.700;23.304;2022-08-21T10:27:30;94464.47;;;26.11;100.00
5500;BME280;2772;42.700;23.304;2022-08-21T10:30:05;94465.88;;;26.19;100.00
5500;BME280;2772;42.700;23.304;2022-08-21T10:32:46;94466.19;;;26.21;100.00
5500;BME280;2772;42.700;23.304;2022-08-21T10:35:20;94471.03;;;26.33;100.00
5500;BME280;2772;42.700;23.304;2022-08-21T10:37:56;94466.88;;;26.45;100.00
5500;BME280;2772;42.700;23.304;2022-08-21T10:40:30;94456.22;;;26.51;100.00
5500;BME280;2772;42.700;23.304;2022-08-21T10:43:09;94459.94;;;26.60;100.00
5500;BME280;2772;42.700;23.304;2022-08-21T10:45:59;94457.34;;;26.53;100.00
5500;BME280;2772;42.700;23.304;2022-08-21T10:48:35;94452.09;;;26.42;100.00
5500;BME280;2772;42.700;23.304;2022-08-21T10:51:09;94450.19;;;26.59;100.00
5500;BME280;2772;42.700;23.304;2022-08-21T10:53:47;94444.28;;;26.61;100.00
5500;BME280;2772;42.700;23.304;2022-08-21T10:56:20;94444.63;;;26.63;100.00
5500;BME280;2772;42.700;23.304;2022-08-21T10:59:03;94440.59;;;26.51;100.00
5500;BME280;2772;42.700;23.304;2022-08-21T11:01:46;94434.03;;;26.48;100.00
5500;BME280;2772;42.700;23.304;2022-08-21T11:04:20;94432.81;;;26.49;100.00
5500;BME280;2772;42.700;23.304;2022-08-21T11:06:56;94426.44;;;26.56;100.00
5500;BME280;2772;42.700;23.304;2022-08-21T11:09:26;94431.09;;;26.39;100.00
5500;BME280;2772;42.700;23.304;2022-08-21T11:11:57;94424.63;;;26.49;100.00
5500;BME280;2772;42.700;23.304;2022-08-21T11:14:33;94422.59;;;26.54;100.00
5500;BME280;2772;42.700;23.304;2022-08-21T11:17:06;94414.81;;;26.52;100.00
5500;BME280;2772;42.700;23.304;2022-08-21T11:19:38;94416.72;;;26.55;100.00
5500;BME280;2772;42.700;23.304;2022-08-21T11:22:13;94402.25;;;26.55;100.00
5500;BME280;2772;42.700;23.304;2022-08-21T11:24:47;94412.09;;;26.52;100.00
5500;BME280;2772;42.700;23.304;2022-08-21T11:27:22;94420.22;;;26.56;100.00
5500;BME280;2772;42.700;23.304;2022-08-21T11:29:54;94413.47;;;26.60;100.00
5500;BME280;2772;42.700;23.304;2022-08-21T11:32:49;94401.84;;;26.40;100.00
5500;BME280;2772;42.700;23.304;2022-08-21T11:35:30;94403.63;;;26.46;100.00
5500;BME280;2772;42.700;23.304;2022-08-21T11:41:02;94400.25;;;26.59;100.00
5500;BME280;2772;42.700;23.304;2022-08-21T11:43:36;94409.88;;;26.63;100.00
5500;BME280;2772;42.700;23.304;2022-08-21T11:46:12;94400.13;;;26.62;100.00
5500;BME280;2772;42.700;23.304;2022-08-21T11:48:48;94407.94;;;26.64;100.00
5500;BME280;2772;42.700;23.304;2022-08-21T11:51:22;94401.84;;;26.56;100.00
5500;BME280;2772;42.700;23.304;2022-08-21T11:53:59;94401.75;;;26.60;100.00
5500;BME280;2772;42.700;23.304;2022-08-21T11:56:31;94392.16;;;26.71;100.00
5500;BME280;2772;42.700;23.304;2022-08-21T11:59:02;94393.19;;;26.77;100.00
5500;BME280;2772;42.700;23.304;2022-08-21T12:01:36;94404.38;;;26.67;100.00
5500;BME280;2772;42.700;23.304;2022-08-21T12:04:08;94393.78;;;26.69;100.00
5500;BME280;2772;42.700;23.304;2022-08-21T12:06:38;94393.63;;;26.76;100.00
5500;BME280;2772;42.700;23.304;2022-08-21T12:09:09;94390.38;;;26.81;100.00
5500;BME280;2772;42.700;23.304;2022-08-21T12:11:47;94378.75;;;26.93;100.00
5500;BME280;2772;42.700;23.304;2022-08-21T12:14:15;94384.81;;;26.84;100.00
5500;BME280;2772;42.700;23.304;2022-08-21T12:16:44;94373.72;;;26.91;100.00
5500;BME280;2772;42.700;23.304;2022-08-21T12:19:14;94378.41;;;26.91;100.00
5500;BME280;2772;42.700;23.304;2022-08-21T12:21:59;94379.34;;;27.00;100.00
5500;BME280;2772;42.700;23.304;2022-08-21T12:24:38;94392.16;;;27.03;100.00
5500;BME280;2772;42.700;23.304;2022-08-21T12:27:26;94390.34;;;26.97;100.00
5500;BME280;2772;42.700;23.304;2022-08-21T12:29:56;94392.94;;;27.04;100.00
5500;BME280;2772;42.700;23.304;2022-08-21T12:32:27;94397.19;;;27.21;100.00
5500;BME280;2772;42.700;23.304;2022-08-21T12:35:02;94390.03;;;27.27;100.00
5500;BME280;2772;42.700;23.304;2022-08-21T12:37:38;94392.06;;;27.23;100.00
5500;BME280;2772;42.700;23.304;2022-08-21T12:40:13;94393.69;;;27.36;100.00
5500;BME280;2772;42.700;23.304;2022-08-21T12:42:47;94389.31;;;27.39;100.00
5500;BME280;2772;42.700;23.304;2022-08-21T12:45:19;94391.00;;;27.49;100.00
5500;BME280;2772;42.700;23.304;2022-08-21T12:47:50;94381.06;;;27.55;100.00
5500;BME280;2772;42.700;23.304;2022-08-21T12:50:28;94380.06;;;27.49;99.21
5500;BME280;2772;42.700;23.304;2022-08-21T12:52:59;94376.13;;;27.50;100.00
5500;BME280;2772;42.700;23.304;2022-08-21T12:55:31;94382.75;;;27.36;100.00
5500;BME280;2772;42.700;23.304;2022-08-21T12:57:58;94386.25;;;27.37;100.00
5500;BME280;2772;42.700;23.304;2022-08-21T13:00:28;94386.56;;;27.39;100.00
5500;BME280;2772;42.700;23.304;2022-08-21T13:02:55;94386.91;;;27.25;100.00
5500;BME280;2772;42.700;23.304;2022-08-21T13:05:29;94380.69;;;27.24;100.00
5500;BME280;2772;42.700;23.304;2022-08-21T13:07:58;94378.03;;;27.21;100.00
5500;BME280;2772;42.700;23.304;2022-08-21T13:10:27;94378.56;;;27.16;100.00
5500;BME280;2772;42.700;23.304;2022-08-21T13:12:56;94380.63;;;27.12;100.00
5500;BME280;2772;42.700;23.304;2022-08-21T13:15:27;94383.34;;;27.12;100.00
5500;BME280;2772;42.700;23.304;2022-08-21T13:17:55;94380.94;;;27.14;100.00
5500;BME280;2772;42.700;23.304;2022-08-21T13:20:30;94373.50;;;27.14;100.00
5500;BME280;2772;42.700;23.304;2022-08-21T13:22:57;94354.66;;;27.04;100.00
5500;BME280;2772;42.700;23.304;2022-08-21T13:25:27;94362.84;;;27.04;100.00
5500;BME280;2772;42.700;23.304;2022-08-21T13:28:03;94364.53;;;27.14;100.00
5500;BME280;2772;42.700;23.304;2022-08-21T13:30:31;94361.06;;;27.13;100.00
5500;BME280;2772;42.700;23.304;2022-08-21T13:33:00;94344.22;;;27.15;100.00
5500;BME280;2772;42.700;23.304;2022-08-21T13:35:44;94334.72;;;27.19;100.00
5500;BME280;2772;42.700;23.304;2022-08-21T13:38:12;94327.75;;;27.31;100.00
5500;BME280;2772;42.700;23.304;2022-08-21T13:40:44;94329.63;;;27.34;100.00
5500;BME280;2772;42.700;23.304;2022-08-21T13:43:12;94350.47;;;27.44;100.00
5500;BME280;2772;42.700;23.304;2022-08-21T13:45:44;94343.53;;;27.55;100.00
5500;BME280;2772;42.700;23.304;2022-08-21T13:48:11;94349.66;;;27.59;100.00
5500;BME280;2772;42.700;23.304;2022-08-21T13:50:41;94341.31;;;27.50;100.00
5500;BME280;2772;42.700;23.304;2022-08-21T13:53:23;94342.94;;;27.48;100.00
5500;BME280;2772;42.700;23.304;2022-08-21T13:55:53;94337.47;;;27.48;100.00
5500;BME280;2772;42.700;23.304;2022-08-21T13:58:25;94341.66;;;27.52;100.00
5500;BME280;2772;42.700;23.304;2022-08-21T14:00:54;94340.19;;;27.48;100.00
5500;BME280;2772;42.700;23.304;2022-08-21T14:03:32;94334.09;;;27.56;100.00
5500;BME280;2772;42.700;23.304;2022-08-21T14:06:01;94338.19;;;27.64;100.00
5500;BME280;2772;42.700;23.304;2022-08-21T14:08:32;94335.59;;;27.73;100.00
5500;BME280;2772;42.700;23.304;2022-08-21T14:11:02;94333.81;;;27.67;100.00
5500;BME280;2772;42.700;23.304;2022-08-21T14:13:38;94326.28;;;27.71;100.00
5500;BME280;2772;42.700;23.304;2022-08-21T14:16:17;94331.59;;;27.62;100.00
5500;BME280;2772;42.700;23.304;2022-08-21T14:18:47;94326.28;;;27.42;100.00
5500;BME280;2772;42.700;23.304;2022-08-21T14:21:26;94330.81;;;27.49;100.00
5500;BME280;2772;42.700;23.304;2022-08-21T14:24:03;94339.44;;;27.47;100.00
5500;BME280;2772;42.700;23.304;2022-08-21T14:26:31;94337.91;;;27.46;100.00
5500;BME280;2772;42.700;23.304;2022-08-21T14:28:59;94337.81;;;27.50;100.00
5500;BME280;2772;42.700;23.304;2022-08-21T14:31:29;94330.41;;;27.34;100.00
5500;BME280;2772;42.700;23.304;2022-08-21T14:33:58;94332.06;;;27.32;100.00
5500;BME280;2772;42.700;23.304;2022-08-21T14:36:27;94337.16;;;27.46;100.00
5500;BME280;2772;42.700;23.304;2022-08-21T14:38:54;94350.81;;;27.46;100.00
5500;BME280;2772;42.700;23.304;2022-08-21T14:41:23;94341.22;;;27.54;100.00
5500;BME280;2772;42.700;23.304;2022-08-21T14:43:51;94337.47;;;27.48;100.00
5500;BME280;2772;42.700;23.304;2022-08-21T14:46:23;94327.25;;;27.36;100.00
5500;BME280;2772;42.700;23.304;2022-08-21T14:48:50;94332.06;;;27.32;100.00
5500;BME280;2772;42.700;23.304;2022-08-21T14:51:17;94332.16;;;27.28;100.00
5500;BME280;2772;42.700;23.304;2022-08-21T14:53:45;94333.06;;;27.22;100.00
5500;BME280;2772;42.700;23.304;2022-08-21T14:56:13;94327.22;;;27.07;100.00
5500;BME280;2772;42.700;23.304;2022-08-21T14:58:42;94318.25;;;26.91;100.00
5500;BME280;2772;42.700;23.304;2022-08-21T15:01:12;94316.22;;;26.79;100.00
5500;BME280;2772;42.700;23.304;2022-08-21T15:03:40;94307.19;;;26.66;100.00
5500;BME280;2772;42.700;23.304;2022-08-21T15:06:07;94305.66;;;26.65;100.00
5500;BME280;2772;42.700;23.304;2022-08-21T15:08:35;94297.59;;;26.58;100.00
5500;BME280;2772;42.700;23.304;2022-08-21T15:11:04;94301.16;;;26.55;100.00
5500;BME280;2772;42.700;23.304;2022-08-21T15:13:31;94296.06;;;26.57;100.00
5500;BME280;2772;42.700;23.304;2022-08-21T15:15:58;94287.19;;;26.69;100.00
5500;BME280;2772;42.700;23.304;2022-08-21T15:18:27;94277.13;;;26.66;100.00
5500;BME280;2772;42.700;23.304;2022-08-21T15:20:54;94287.03;;;26.76;100.00
5500;BME280;2772;42.700;23.304;2022-08-21T15:23:21;94280.78;;;26.75;100.00
5500;BME280;2772;42.700;23.304;2022-08-21T15:25:49;94258.47;;;26.77;100.00
5500;BME280;2772;42.700;23.304;2022-08-21T15:28:18;94256.69;;;26.86;100.00
5500;BME280;2772;42.700;23.304;2022-08-21T15:30:49;94255.75;;;26.77;100.00
5500;BME280;2772;42.700;23.304;2022-08-21T15:33:17;94238.41;;;26.83;100.00
5500;BME280;2772;42.700;23.304;2022-08-21T15:35:44;94251.13;;;26.90;100.00
5500;BME280;2772;42.700;23.304;2022-08-21T15:38:11;94247.69;;;26.86;100.00
5500;BME280;2772;42.700;23.304;2022-08-21T15:40:40;94262.16;;;26.86;100.00
5500;BME280;2772;42.700;23.304;2022-08-21T15:43:25;94259.75;;;26.88;100.00
5500;BME280;2772;42.700;23.304;2022-08-21T15:45:54;94254.53;;;26.78;100.00
5500;BME280;2772;42.700;23.304;2022-08-21T15:48:24;94270.94;;;26.78;100.00
5500;BME280;2772;42.700;23.304;2022-08-21T15:50:51;94269.81;;;26.59;100.00
5500;BME280;2772;42.700;23.304;2022-08-21T15:53:18;94269.81;;;26.59;100.00
5500;BME280;2772;42.700;23.304;2022-08-21T15:55:45;94269.16;;;26.55;100.00
5500;BME280;2772;42.700;23.304;2022-08-21T15:58:14;94268.16;;;26.49;100.00
5500;BME280;2772;42.700;23.304;2022-08-21T16:00:42;94273.19;;;26.51;100.00
5500;BME280;2772;42.700;23.304;2022-08-21T16:03:13;94280.94;;;26.52;100.00
5500;BME280;2772;42.700;23.304;2022-08-21T16:05:42;94290.31;;;26.51;100.00
5500;BME280;2772;42.700;23.304;2022-08-21T16:08:09;94288.88;;;26.30;100.00
5500;BME280;2772;42.700;23.304;2022-08-21T16:10:36;94285.13;;;26.24;100.00
5500;BME280;2772;42.700;23.304;2022-08-21T16:13:11;94292.59;;;26.04;100.00
5500;BME280;2772;42.700;23.304;2022-08-21T16:15:39;94302.19;;;25.93;100.00
5500;BME280;2772;42.700;23.304;2022-08-21T16:18:06;94304.78;;;26.00;100.00
5500;BME280;2772;42.700;23.304;2022-08-21T16:20:35;94313.38;;;25.98;100.00
5500;BME280;2772;42.700;23.304;2022-08-21T16:23:01;94315.91;;;25.89;100.00
5500;BME280;2772;42.700;23.304;2022-08-21T16:25:28;94316.91;;;25.79;100.00
5500;BME280;2772;42.700;23.304;2022-08-21T16:27:58;94319.22;;;25.81;100.00
5500;BME280;2772;42.700;23.304;2022-08-21T16:30:27;94323.44;;;25.85;100.00
5500;BME280;2772;42.700;23.304;2022-08-21T16:32:54;94321.59;;;25.79;100.00
5500;BME280;2772;42.700;23.304;2022-08-21T16:35:25;94327.50;;;25.77;100.00
5500;BME280;2772;42.700;23.304;2022-08-21T16:37:53;94325.88;;;25.80;100.00
5500;BME280;2772;42.700;23.304;2022-08-21T16:40:21;94329.38;;;25.80;100.00
5500;BME280;2772;42.700;23.304;2022-08-21T16:42:48;94324.34;;;25.79;100.00
5500;BME280;2772;42.700;23.304;2022-08-21T16:45:17;94318.94;;;25.75;100.00
5500;BME280;2772;42.700;23.304;2022-08-21T16:47:45;94318.03;;;25.62;100.00
5500;BME280;2772;42.700;23.304;2022-08-21T16:50:15;94310.63;;;25.63;100.00
5500;BME280;2772;42.700;23.304;2022-08-21T16:52:42;94321.00;;;25.52;100.00
5500;BME280;2772;42.700;23.304;2022-08-21T16:55:10;94325.75;;;25.48;100.00
5500;BME280;2772;42.700;23.304;2022-08-21T16:57:37;94319.88;;;25.49;100.00
5500;BME280;2772;42.700;23.304;2022-08-21T17:00:06;94314.84;;;25.48;100.00
5500;BME280;2772;42.700;23.304;2022-08-21T17:02:43;94323.53;;;25.43;100.00
5500;BME280;2772;42.700;23.304;2022-08-21T17:05:12;94324.88;;;25.31;100.00
5500;BME280;2772;42.700;23.304;2022-08-21T17:07:39;94334.25;;;25.30;100.00
5500;BME280;2772;42.700;23.304;2022-08-21T17:10:08;94346.41;;;25.26;100.00
5500;BME280;2772;42.700;23.304;2022-08-21T17:12:38;94350.66;;;25.27;100.00
5500;BME280;2772;42.700;23.304;2022-08-21T17:15:08;94345.56;;;25.29;100.00
5500;BME280;2772;42.700;23.304;2022-08-21T17:17:38;94352.13;;;25.31;100.00
5500;BME280;2772;42.700;23.304;2022-08-21T17:20:06;94362.31;;;25.31;100.00
5500;BME280;2772;42.700;23.304;2022-08-21T17:22:33;94360.09;;;25.22;100.00
5500;BME280;2772;42.700;23.304;2022-08-21T17:25:00;94372.03;;;25.09;100.00
5500;BME280;2772;42.700;23.304;2022-08-21T17:27:27;94369.91;;;25.20;100.00
5500;BME280;2772;42.700;23.304;2022-08-21T17:29:56;94372.31;;;25.14;100.00
5500;BME280;2772;42.700;23.304;2022-08-21T17:32:23;94372.69;;;25.16;100.00
5500;BME280;2772;42.700;23.304;2022-08-21T17:34:50;94390.22;;;25.15;100.00
5500;BME280;2772;42.700;23.304;2022-08-21T17:37:17;94383.16;;;25.18;100.00
5500;BME280;2772;42.700;23.304;2022-08-21T17:39:45;94375.78;;;25.18;100.00
5500;BME280;2772;42.700;23.304;2022-08-21T17:42:13;94380.13;;;25.12;100.00
5500;BME280;2772;42.700;23.304;2022-08-21T17:44:42;94383.94;;;25.18;100.00
5500;BME280;2772;42.700;23.304;2022-08-21T17:47:12;94389.03;;;25.16;100.00
5500;BME280;2772;42.700;23.304;2022-08-21T17:49:40;94393.75;;;25.12;100.00
5500;BME280;2772;42.700;23.304;2022-08-21T17:52:07;94398.66;;;25.01;100.00
5500;BME280;2772;42.700;23.304;2022-08-21T17:54:34;94406.75;;;25.05;100.00
5500;BME280;2772;42.700;23.304;2022-08-21T17:57:02;94401.03;;;24.99;100.00
5500;BME280;2772;42.700;23.304;2022-08-21T17:59:30;94397.34;;;24.86;100.00
5500;BME280;2772;42.700;23.304;2022-08-21T18:01:58;94399.41;;;24.78;100.00
5500;BME280;2772;42.700;23.304;2022-08-21T18:04:29;94390.13;;;24.76;100.00
5500;BME280;2772;42.700;23.304;2022-08-21T18:06:56;94394.31;;;24.80;100.00
5500;BME280;2772;42.700;23.304;2022-08-21T18:09:23;94391.44;;;24.64;100.00
5500;BME280;2772;42.700;23.304;2022-08-21T18:11:53;94396.16;;;24.60;100.00
5500;BME280;2772;42.700;23.304;2022-08-21T18:14:25;94407.00;;;24.64;100.00
5500;BME280;2772;42.700;23.304;2022-08-21T18:16:53;94405.81;;;24.65;100.00
5500;BME280;2772;42.700;23.304;2022-08-21T18:19:21;94400.78;;;24.63;100.00
5500;BME280;2772;42.700;23.304;2022-08-21T18:21:52;94404.47;;;24.50;100.00
5500;BME280;2772;42.700;23.304;2022-08-21T18:24:19;94399.66;;;24.34;100.00
5500;BME280;2772;42.700;23.304;2022-08-21T18:26:46;94399.59;;;24.38;100.00
5500;BME280;2772;42.700;23.304;2022-08-21T18:29:16;94405.41;;;24.40;100.00
5500;BME280;2772;42.700;23.304;2022-08-21T18:31:45;94396.47;;;24.39;100.00
5500;BME280;2772;42.700;23.304;2022-08-21T18:34:20;94395.44;;;24.30;100.00
5500;BME280;2772;42.700;23.304;2022-08-21T18:36:48;94400.50;;;24.28;100.00
5500;BME280;2772;42.700;23.304;2022-08-21T18:39:17;94401.53;;;24.11;100.00
5500;BME280;2772;42.700;23.304;2022-08-21T18:41:46;94405.53;;;24.03;100.00
5500;BME280;2772;42.700;23.304;2022-08-21T18:44:15;94407.16;;;23.97;100.00
5500;BME280;2772;42.700;23.304;2022-08-21T18:46:45;94402.56;;;23.90;100.00
5500;BME280;2772;42.700;23.304;2022-08-21T18:49:13;94401.50;;;23.81;100.00
5500;BME280;2772;42.700;23.304;2022-08-21T18:51:40;94395.84;;;23.68;100.00
5500;BME280;2772;42.700;23.304;2022-08-21T18:54:07;94401.72;;;23.63;100.00
5500;BME280;2772;42.700;23.304;2022-08-21T18:56:36;94397.09;;;23.60;100.00
5500;BME280;2772;42.700;23.304;2022-08-21T18:59:04;94403.00;;;23.52;100.00
5500;BME280;2772;42.700;23.304;2022-08-21T19:01:31;94394.78;;;23.59;100.00
5500;BME280;2772;42.700;23.304;2022-08-21T19:03:58;94398.22;;;23.63;100.00
5500;BME280;2772;42.700;23.304;2022-08-21T19:06:25;94410.81;;;23.50;100.00
5500;BME280;2772;42.700;23.304;2022-08-21T19:08:52;94405.81;;;23.44;100.00
5500;BME280;2772;42.700;23.304;2022-08-21T19:11:20;94405.28;;;23.57;100.00
5500;BME280;2772;42.700;23.304;2022-08-21T19:13:50;94403.00;;;23.52;100.00
5500;BME280;2772;42.700;23.304;2022-08-21T19:16:19;94408.78;;;23.57;100.00
5500;BME280;2772;42.700;23.304;2022-08-21T19:18:47;94411.81;;;23.63;100.00
5500;BME280;2772;42.700;23.304;2022-08-21T19:21:14;94407.56;;;23.62;100.00
5500;BME280;2772;42.700;23.304;2022-08-21T19:23:41;94404.34;;;23.70;100.00
5500;BME280;2772;42.700;23.304;2022-08-21T19:26:12;94419.84;;;23.73;100.00
5500;BME280;2772;42.700;23.304;2022-08-21T19:28:42;94430.41;;;23.68;100.00
5500;BME280;2772;42.700;23.304;2022-08-21T19:31:15;94437.69;;;23.78;100.00
5500;BME280;2772;42.700;23.304;2022-08-21T19:33:44;94437.28;;;23.79;100.00
5500;BME280;2772;42.700;23.304;2022-08-21T19:36:12;94434.59;;;23.76;100.00
5500;BME280;2772;42.700;23.304;2022-08-21T19:38:39;94442.34;;;23.77;100.00
5500;BME280;2772;42.700;23.304;2022-08-21T19:41:09;94440.75;;;23.80;100.00
5500;BME280;2772;42.700;23.304;2022-08-21T19:43:41;94435.44;;;23.69;100.00
5500;BME280;2772;42.700;23.304;2022-08-21T19:46:10;94428.78;;;23.74;100.00
5500;BME280;2772;42.700;23.304;2022-08-21T19:48:39;94441.22;;;23.75;100.00
5500;BME280;2772;42.700;23.304;2022-08-21T19:51:06;94441.00;;;23.59;100.00
5500;BME280;2772;42.700;23.304;2022-08-21T19:53:33;94439.53;;;23.51;100.00
5500;BME280;2772;42.700;23.304;2022-08-21T19:56:00;94443.34;;;23.57;100.00
5500;BME280;2772;42.700;23.304;2022-08-21T19:58:32;94453.38;;;23.63;100.00
5500;BME280;2772;42.700;23.304;2022-08-21T20:01:00;94440.31;;;23.51;100.00
5500;BME280;2772;42.700;23.304;2022-08-21T20:03:27;94443.22;;;23.30;100.00
5500;BME280;2772;42.700;23.304;2022-08-21T20:05:55;94439.72;;;23.29;100.00
5500;BME280;2772;42.700;23.304;2022-08-21T20:08:25;94440.91;;;23.28;100.00
5500;BME280;2772;42.700;23.304;2022-08-21T20:10:54;94441.66;;;23.32;100.00
5500;BME280;2772;42.700;23.304;2022-08-21T20:13:22;94439.09;;;23.11;100.00
5500;BME280;2772;42.700;23.304;2022-08-21T20:15:50;94440.72;;;23.02;100.00
5500;BME280;2772;42.700;23.304;2022-08-21T20:18:18;94434.50;;;23.05;100.00
5500;BME280;2772;42.700;23.304;2022-08-21T20:20:45;94432.88;;;23.14;100.00
5500;BME280;2772;42.700;23.304;2022-08-21T20:23:14;94427.81;;;23.16;100.00
5500;BME280;2772;42.700;23.304;2022-08-21T20:25:46;94434.41;;;23.15;100.00
5500;BME280;2772;42.700;23.304;2022-08-21T20:28:14;94428.97;;;23.15;100.00
5500;BME280;2772;42.700;23.304;2022-08-21T20:30:41;94428.13;;;23.22;100.00
5500;BME280;2772;42.700;23.304;2022-08-21T20:33:09;94427.66;;;23.34;100.00
5500;BME280;2772;42.700;23.304;2022-08-21T20:35:37;94425.34;;;23.32;100.00
5500;BME280;2772;42.700;23.304;2022-08-21T20:38:04;94424.63;;;23.25;100.00
5500;BME280;2772;42.700;23.304;2022-08-21T20:40:33;94433.88;;;23.31;100.00
5500;BME280;2772;42.700;23.304;2022-08-21T20:43:01;94447.47;;;23.31;100.00
5500;BME280;2772;42.700;23.304;2022-08-21T20:45:31;94454.09;;;23.30;100.00
5500;BME280;2772;42.700;23.304;2022-08-21T20:48:02;94458.03;;;23.25;100.00
5500;BME280;2772;42.700;23.304;2022-08-21T20:50:34;94452.63;;;23.18;100.00
5500;BME280;2772;42.700;23.304;2022-08-21T20:53:07;94453.50;;;23.08;100.00
5500;BME280;2772;42.700;23.304;2022-08-21T20:55:42;94452.38;;;23.02;100.00
5500;BME280;2772;42.700;23.304;2022-08-21T20:58:16;94451.34;;;22.86;100.00
5500;BME280;2772;42.700;23.304;2022-08-21T21:00:46;94445.66;;;22.66;100.00
5500;BME280;2772;42.700;23.304;2022-08-21T21:03:18;94443.28;;;22.75;100.00
5500;BME280;2772;42.700;23.304;2022-08-21T21:05:50;94450.31;;;22.69;100.00
5500;BME280;2772;42.700;23.304;2022-08-21T21:08:22;94453.75;;;22.73;100.00
5500;BME280;2772;42.700;23.304;2022-08-21T21:10:55;94446.38;;;22.77;100.00
5500;BME280;2772;42.700;23.304;2022-08-21T21:13:25;94451.81;;;22.74;100.00
5500;BME280;2772;42.700;23.304;2022-08-21T21:15:58;94458.38;;;22.80;100.00
5500;BME280;2772;42.700;23.304;2022-08-21T21:18:31;94452.59;;;22.74;100.00
5500;BME280;2772;42.700;23.304;2022-08-21T21:21:06;94452.63;;;22.67;100.00
5500;BME280;2772;42.700;23.304;2022-08-21T21:23:40;94451.09;;;22.66;100.00
5500;BME280;2772;42.700;23.304;2022-08-21T21:26:14;94465.94;;;22.51;100.00
5500;BME280;2772;42.700;23.304;2022-08-21T21:28:51;94471.38;;;22.41;100.00
5500;BME280;2772;42.700;23.304;2022-08-21T21:31:20;94462.09;;;22.42;100.00
5500;BME280;2772;42.700;23.304;2022-08-21T21:33:47;94469.06;;;22.39;100.00
5500;BME280;2772;42.700;23.304;2022-08-21T21:36:23;94457.09;;;22.33;100.00
5500;BME280;2772;42.700;23.304;2022-08-21T21:39:08;94469.84;;;22.43;100.00
5500;BME280;2772;42.700;23.304;2022-08-21T21:41:43;94460.50;;;22.48;100.00
5500;BME280;2772;42.700;23.304;2022-08-21T21:44:30;94450.00;;;22.53;100.00
5500;BME280;2772;42.700;23.304;2022-08-21T21:47:03;94450.44;;;22.45;100.00
5500;BME280;2772;42.700;23.304;2022-08-21T21:49:37;94454.28;;;22.47;100.00
5500;BME280;2772;42.700;23.304;2022-08-21T21:52:21;94463.63;;;22.46;100.00
5500;BME280;2772;42.700;23.304;2022-08-21T21:55:06;94457.41;;;22.42;100.00
5500;BME280;2772;42.700;23.304;2022-08-21T21:57:57;94452.84;;;22.32;100.00
5500;BME280;2772;42.700;23.304;2022-08-21T22:00:27;94450.13;;;22.29;100.00
5500;BME280;2772;42.700;23.304;2022-08-21T22:03:06;94448.94;;;22.37;100.00
5500;BME280;2772;42.700;23.304;2022-08-21T22:05:46;94452.84;;;22.32;100.00
5500;BME280;2772;42.700;23.304;2022-08-21T22:08:22;94460.22;;;22.28;100.00
5500;BME280;2772;42.700;23.304;2022-08-21T22:10:55;94460.19;;;22.32;100.00
5500;BME280;2772;42.700;23.304;2022-08-21T22:13:28;94460.97;;;22.32;100.00
5500;BME280;2772;42.700;23.304;2022-08-21T22:15:57;94454.44;;;22.26;100.00
5500;BME280;2772;42.700;23.304;2022-08-21T22:18:34;94450.13;;;22.29;100.00
5500;BME280;2772;42.700;23.304;2022-08-21T22:21:08;94454.44;;;22.23;100.00